Weather reports worldwide

Advertisment
Valencia, Spain (8285): temperature & dewpoint: 19.03.2019 07:00:00 - 25.03.2019 07:00:00 (CET)Valencia, Spain (8285): wind speed & gusts: 19.03.2019 07:00:00 - 25.03.2019 07:00:00 (CET)Valencia, Spain (8285): wind direction: 19.03.2019 07:00:00 - 25.03.2019 07:00:00 (CET)Valencia, Spain (8285): precipitation: 19.03.2019 07:00:00 - 25.03.2019 07:00:00 (CET)
Date & Time tt [°C] td [°C] ff [km/h] ff [kn] fx [km/h] fx [kn] dd rr [mm]
25.03.2019 07:00:00 - - - - - - - -
25.03.2019 06:00:00 9,9 -1,2 4 2 8 4 SW 0,0
25.03.2019 05:00:00 9,5 -1,0 1 1 8 5 SW 0,0
25.03.2019 04:00:00 9,5 -0,5 2 1 6 3 WSW 0,0
25.03.2019 03:00:00 10,3 0,0 0 0 6 3 SW 0,0
25.03.2019 02:00:00 11,0 0,6 1 1 7 4 W 0,0
25.03.2019 01:00:00 11,4 3,2 2 1 6 4 WSW -
25.03.2019 00:00:00 12,0 6,8 3 2 5 3 WSW 0,0
24.03.2019 23:00:00 12,9 7,7 0 0 6 3 N 0,0
24.03.2019 22:00:00 13,7 7,4 4 2 5 3 N 0,0
24.03.2019 21:00:00 14,5 4,1 1 1 5 3 NNE 0,0
24.03.2019 20:00:00 16,6 3,9 3 1 9 5 SSE 0,0
24.03.2019 19:00:00 18,3 3,4 6 3 16 9 SSE -
24.03.2019 18:00:00 19,8 2,7 5 3 17 9 S 0,0
24.03.2019 17:00:00 20,3 2,7 5 3 14 8 S 0,0
24.03.2019 16:00:00 21,0 1,7 9 5 20 11 SSE 0,0
24.03.2019 15:00:00 22,3 1,3 4 2 17 9 ESE 0,0
24.03.2019 14:00:00 22,0 2,7 5 3 16 9 SSE 0,0
24.03.2019 13:00:00 21,5 3,2 6 4 16 9 SSE -
24.03.2019 12:00:00 21,2 2,9 5 3 10 6 ESE 0,0
24.03.2019 11:00:00 20,0 4,1 1 1 10 5 WSW 0,0
24.03.2019 10:00:00 15,8 4,1 5 3 11 6 SW 0,0
24.03.2019 09:00:00 12,6 3,6 6 3 14 8 WSW 0,0
24.03.2019 08:00:00 10,2 3,0 6 3 12 6 WSW 0,0
24.03.2019 07:00:00 9,4 2,9 4 2 8 4 WSW -
24.03.2019 06:00:00 9,9 3,0 4 2 14 7 WSW 0,0
24.03.2019 05:00:00 9,9 3,4 4 2 9 5 W 0,0
24.03.2019 04:00:00 10,0 3,9 2 1 8 5 WSW 0,0
24.03.2019 03:00:00 10,3 4,3 4 2 11 6 WSW 0,0
24.03.2019 02:00:00 11,1 4,5 5 3 15 8 WSW 0,0
24.03.2019 01:00:00 11,4 5,3 4 2 11 6 WSW -
24.03.2019 00:00:00 11,8 6,2 2 1 7 4 W 0,0
23.03.2019 23:00:00 12,7 7,4 1 1 6 4 WNW 0,0
23.03.2019 22:00:00 12,8 7,0 3 2 6 4 WSW 0,0
23.03.2019 21:00:00 14,1 7,1 3 1 8 4 SSE 0,0
23.03.2019 20:00:00 14,1 5,9 1 1 6 4 NNE 0,0
23.03.2019 19:00:00 15,5 5,5 3 2 9 5 N -
23.03.2019 18:00:00 16,3 5,8 2 1 14 8 SE 0,0
23.03.2019 17:00:00 15,9 5,8 10 5 20 11 ESE 0,0
23.03.2019 16:00:00 16,9 4,8 9 5 19 11 ESE 0,0
23.03.2019 15:00:00 17,4 3,6 11 6 23 12 ESE 0,0
23.03.2019 14:00:00 16,9 3,2 8 4 17 9 ESE 0,0
23.03.2019 13:00:00 17,2 2,3 5 3 19 10 E -
23.03.2019 12:00:00 17,4 0,9 4 2 18 10 E 0,0
23.03.2019 11:00:00 17,6 3,8 1 1 10 6 N 0,0
23.03.2019 10:00:00 14,1 3,8 2 1 11 6 WSW 0,0
23.03.2019 09:00:00 11,9 3,6 4 2 10 6 WNW 0,0
23.03.2019 08:00:00 9,8 2,7 2 1 6 3 W 0,0
23.03.2019 07:00:00 9,5 2,1 1 1 6 3 W -
23.03.2019 06:00:00 10,3 2,1 1 1 8 5 WSW 0,0
23.03.2019 05:00:00 10,8 2,1 4 2 12 7 NNW 0,0
23.03.2019 04:00:00 11,0 2,5 6 4 14 7 N 0,0
23.03.2019 03:00:00 11,1 3,2 1 1 6 3 N 0,0
23.03.2019 02:00:00 11,5 3,0 3 1 8 4 N 0,0
23.03.2019 01:00:00 11,0 2,3 3 1 7 4 N -
23.03.2019 00:00:00 11,3 1,3 3 2 9 5 N 0,0
22.03.2019 23:00:00 11,9 1,3 4 2 6 4 N 0,0
22.03.2019 22:00:00 12,9 1,9 3 2 10 5 NNW 0,0
22.03.2019 21:00:00 13,3 2,3 4 2 8 5 NNW 0,0
22.03.2019 20:00:00 13,5 1,7 0 0 9 5 N 0,0
22.03.2019 19:00:00 14,7 1,9 2 1 11 6 N -
22.03.2019 18:00:00 15,7 1,7 2 1 17 9 N 0,0
22.03.2019 17:00:00 15,9 1,7 7 4 21 11 NNE 0,0
22.03.2019 16:00:00 17,0 1,5 7 4 21 11 E 0,0
22.03.2019 15:00:00 18,3 1,7 4 2 25 14 NE 0,0
22.03.2019 14:00:00 17,7 2,1 9 5 29 16 NNE 0,0
22.03.2019 13:00:00 16,1 1,7 11 6 30 16 N -
22.03.2019 12:00:00 16,7 1,1 8 4 29 16 NNE 0,0
22.03.2019 11:00:00 15,9 0,0 9 5 24 13 NNE 0,0
22.03.2019 10:00:00 13,8 1,1 3 1 11 6 NW 0,0
22.03.2019 09:00:00 11,0 1,3 1 0 8 4 NW 0,0
22.03.2019 08:00:00 9,2 0,6 1 1 9 5 WSW 0,0
22.03.2019 07:00:00 8,4 0,4 4 2 8 4 SW -
22.03.2019 06:00:00 8,1 0,6 4 2 8 4 WSW 0,0
22.03.2019 05:00:00 7,5 0,4 2 1 10 5 WNW 0,0
22.03.2019 04:00:00 7,6 0,6 3 1 9 5 WSW 0,0
22.03.2019 03:00:00 7,9 0,9 3 1 8 4 WSW 0,0
22.03.2019 02:00:00 8,9 1,7 1 1 9 5 W 0,0
22.03.2019 01:00:00 9,3 3,0 3 1 8 4 WNW -
22.03.2019 00:00:00 10,1 2,9 5 3 11 6 NNW 0,0
21.03.2019 23:00:00 10,5 3,2 4 2 9 5 NNW 0,0
21.03.2019 22:00:00 11,1 3,2 5 3 10 5 N 0,0
21.03.2019 21:00:00 12,4 3,0 5 3 12 6 N 0,0
21.03.2019 20:00:00 12,7 2,5 4 2 15 8 NNE 0,0
21.03.2019 19:00:00 13,3 1,9 4 2 18 10 N -
21.03.2019 18:00:00 14,1 1,3 7 4 20 11 NE 0,0
21.03.2019 17:00:00 14,7 0,9 4 2 30 16 ENE 0,0
21.03.2019 16:00:00 15,6 0,9 4 2 27 15 ENE 0,0
21.03.2019 15:00:00 16,3 1,3 4 2 29 16 ENE 0,0
21.03.2019 14:00:00 16,3 0,0 4 2 31 17 E 0,0
21.03.2019 13:00:00 16,5 0,2 7 4 29 16 NE -
21.03.2019 12:00:00 16,3 -0,5 8 4 28 15 N 0,0
21.03.2019 11:00:00 16,5 0,2 7 4 20 11 NNE 0,0
21.03.2019 10:00:00 13,1 0,2 7 4 13 7 NNE 0,0
21.03.2019 09:00:00 10,4 1,3 2 1 9 5 WNW 0,0
21.03.2019 08:00:00 7,6 0,4 3 1 9 5 WNW 0,0
21.03.2019 07:00:00 7,1 -0,3 3 2 13 7 WNW -
21.03.2019 06:00:00 7,3 0,6 4 2 10 6 NW 0,0
21.03.2019 05:00:00 7,8 1,1 3 2 13 7 W 0,0
21.03.2019 04:00:00 8,5 1,9 3 2 11 6 NNW 0,0
21.03.2019 03:00:00 8,4 3,0 2 1 10 6 NW 0,0
21.03.2019 02:00:00 8,5 3,6 1 1 9 5 W 0,0
21.03.2019 01:00:00 9,4 3,8 4 2 11 6 NNW -
21.03.2019 00:00:00 9,6 4,1 2 1 9 5 N 0,0
20.03.2019 23:00:00 10,2 4,3 3 2 9 5 N 0,0
20.03.2019 22:00:00 11,0 3,6 3 2 9 5 N 0,0
20.03.2019 21:00:00 11,5 3,8 2 1 6 4 N 0,0
20.03.2019 20:00:00 12,2 3,4 1 1 11 6 ENE 0,0
20.03.2019 19:00:00 12,6 2,5 3 2 16 9 NNE -
20.03.2019 18:00:00 13,4 2,3 8 4 16 9 ESE 0,0
20.03.2019 17:00:00 14,1 2,1 5 3 23 13 ESE 0,0
20.03.2019 16:00:00 14,3 1,9 8 4 22 12 ESE 0,0
20.03.2019 15:00:00 14,8 1,1 9 5 24 13 SE 0,0
20.03.2019 14:00:00 15,5 0,4 9 5 21 12 ESE 0,0
20.03.2019 13:00:00 14,6 -0,3 7 4 22 12 SE -
20.03.2019 12:00:00 14,2 0,0 8 4 18 10 ESE 0,0
20.03.2019 11:00:00 16,1 1,7 3 1 12 7 N 0,0
20.03.2019 10:00:00 13,6 2,3 3 2 12 7 W 0,0
20.03.2019 09:00:00 11,1 4,3 4 2 11 6 W 0,0
20.03.2019 08:00:00 9,2 5,1 4 2 11 6 WNW 0,0
20.03.2019 07:00:00 9,2 6,7 4 2 10 5 NNW -
20.03.2019 06:00:00 9,1 6,7 1 0 10 6 W 0,0
20.03.2019 05:00:00 9,1 6,7 5 3 15 8 NW 0,0
20.03.2019 04:00:00 9,0 7,1 5 3 14 8 NW 0,0
20.03.2019 03:00:00 9,3 7,6 2 1 11 6 W 0,0
20.03.2019 02:00:00 9,3 7,6 7 4 13 7 W 1,8
20.03.2019 01:00:00 9,9 6,8 6 3 21 11 NNE -
20.03.2019 00:00:00 12,6 4,8 5 3 14 7 ESE 0,0
19.03.2019 23:00:00 12,7 4,1 4 2 11 6 ESE 0,0
19.03.2019 22:00:00 12,7 4,1 5 3 11 6 ESE 0,0
19.03.2019 21:00:00 12,9 4,1 4 2 11 6 SSE 0,0
19.03.2019 20:00:00 12,9 3,0 1 1 11 6 SSE 0,0
19.03.2019 19:00:00 13,2 3,0 0 0 16 9 NE -
19.03.2019 18:00:00 13,8 2,1 4 2 17 9 ESE 0,0
19.03.2019 17:00:00 14,1 1,1 6 3 22 12 ESE 0,0
19.03.2019 16:00:00 14,9 1,1 10 5 22 12 ESE 0,0
19.03.2019 15:00:00 15,9 1,3 9 5 26 14 ESE 0,0
19.03.2019 14:00:00 15,9 1,7 9 5 25 14 SE 0,0
19.03.2019 13:00:00 15,6 0,2 7 4 20 11 E -
19.03.2019 12:00:00 15,9 0,4 6 4 22 12 E 0,0
19.03.2019 11:00:00 15,7 0,0 1 1 19 10 E 0,0
19.03.2019 10:00:00 14,1 0,0 10 6 20 11 N 0,0
19.03.2019 09:00:00 12,0 1,1 8 4 19 10 NNW 0,0
19.03.2019 08:00:00 11,3 0,4 5 3 15 8 WNW 0,0
19.03.2019 07:00:00 10,1 -0,3 3 2 11 6 NW -

tt = temperature
td = dewpoint
ff = wind speed
fx = gusts
dd = wind direction
rr = precipitation

Next stations